Time;durP1;ratioP1;P1;durP2;ratioP2;P2;SDS_P1;SDS_P2;PMS_P1;PMS_P2;Temp;Humidity;BMP_temperature;BMP_pressure;BME280_temperature;BME280_humidity;BME280_pressure;Samples;Min_cycle;Max_cycle;Signal;HPM_P1;HPM_P2
2023/12/29 00:02:00;;;;;;;8.68;1.10;;;10.70;99.90;;;;;;4955794;28;20049;-75
2023/12/29 00:04:26;;;;;;;10.93;1.30;;;10.70;99.90;;;;;;4970078;28;20049;-75
2023/12/29 00:06:53;;;;;;;10.95;1.75;;;10.80;99.90;;;;;;4976892;28;20034;-75
2023/12/29 00:09:20;;;;;;;11.88;1.30;;;10.80;99.90;;;;;;4970966;28;20030;-75
2023/12/29 00:11:47;;;;;;;10.82;1.20;;;10.70;99.90;;;;;;4970494;28;20045;-74
2023/12/29 00:14:14;;;;;;;10.32;1.00;;;10.80;99.90;;;;;;4971965;28;20034;-76
2023/12/29 00:16:40;;;;;;;10.35;1.77;;;10.80;99.90;;;;;;4969995;28;20057;-74
2023/12/29 00:19:06;;;;;;;7.78;1.35;;;10.80;99.90;;;;;;4971096;28;20053;-75
2023/12/29 00:21:32;;;;;;;10.40;1.60;;;10.80;99.90;;;;;;4956489;28;20046;-75
2023/12/29 00:23:59;;;;;;;7.20;0.98;;;10.90;99.90;;;;;;4973002;28;20038;-74
2023/12/29 00:26:25;;;;;;;7.63;1.10;;;10.90;99.90;;;;;;4954582;28;20049;-75
2023/12/29 00:28:57;;;;;;;11.50;1.15;;;10.90;99.90;;;;;;4975307;28;20030;-75
2023/12/29 00:31:24;;;;;;;11.48;1.67;;;10.90;99.90;;;;;;4974285;28;20367;-74
2023/12/29 00:33:52;;;;;;;9.90;1.52;;;10.80;99.90;;;;;;4990575;28;20045;-73
2023/12/29 00:36:21;;;;;;;14.38;1.58;;;10.80;99.90;;;;;;4974560;28;20045;-73
2023/12/29 00:38:47;;;;;;;10.02;1.23;;;10.60;99.90;;;;;;4957246;28;20437;-74
2023/12/29 00:41:13;;;;;;;8.85;1.10;;;10.50;99.90;;;;;;4958471;28;20285;-73
2023/12/29 00:43:40;;;;;;;16.55;1.77;;;10.50;99.90;;;;;;4975263;28;20532;-74
2023/12/29 00:46:06;;;;;;;11.32;1.92;;;10.40;99.90;;;;;;4976487;28;20034;-74
2023/12/29 00:48:32;;;;;;;11.07;1.10;;;10.40;99.90;;;;;;4974137;28;20053;-74
2023/12/29 00:51:03;;;;;;;17.05;1.67;;;10.40;99.90;;;;;;4976542;28;20073;-75
2023/12/29 00:53:33;;;;;;;13.82;0.80;;;10.40;99.90;;;;;;4973679;28;20038;-75
2023/12/29 00:55:59;;;;;;;10.93;1.30;;;10.40;99.90;;;;;;4976644;28;20038;-73
2023/12/29 00:58:26;;;;;;;7.43;1.00;;;10.50;99.90;;;;;;4987815;28;20481;-75
2023/12/29 01:00:54;;;;;;;8.35;1.30;;;10.50;99.90;;;;;;4988352;28;20049;-74
2023/12/29 01:03:21;;;;;;;10.45;1.08;;;10.50;99.90;;;;;;4972809;28;20042;-76
2023/12/29 01:05:47;;;;;;;13.60;1.70;;;10.60;99.90;;;;;;4954336;28;20038;-75
2023/12/29 01:08:13;;;;;;;13.68;1.42;;;10.60;99.90;;;;;;4977903;28;20047;-75
2023/12/29 01:10:40;;;;;;;9.25;1.20;;;10.60;99.90;;;;;;4972054;28;20504;-76
2023/12/29 01:13:06;;;;;;;11.60;1.50;;;10.60;99.90;;;;;;4961791;28;20038;-76
2023/12/29 01:15:32;;;;;;;11.10;1.13;;;10.60;99.90;;;;;;4971661;28;20038;-75
2023/12/29 01:17:58;;;;;;;8.38;1.20;;;10.60;99.90;;;;;;4955778;28;20046;-76
2023/12/29 01:20:25;;;;;;;10.32;1.17;;;10.70;99.90;;;;;;4953871;28;20034;-76
2023/12/29 01:22:51;;;;;;;10.80;1.73;;;10.70;99.90;;;;;;4974362;28;20041;-76
2023/12/29 01:25:18;;;;;;;11.20;1.17;;;10.70;99.90;;;;;;4959905;28;20072;-76
2023/12/29 01:27:44;;;;;;;12.25;1.05;;;10.70;99.90;;;;;;4952390;28;20475;-76
2023/12/29 01:30:11;;;;;;;14.23;1.75;;;10.70;99.90;;;;;;4971447;28;20385;-75
2023/12/29 01:32:38;;;;;;;11.45;1.30;;;10.70;99.90;;;;;;4959464;28;20046;-76
2023/12/29 01:35:04;;;;;;;7.63;1.17;;;10.60;99.90;;;;;;4940420;28;20523;-75
2023/12/29 01:37:31;;;;;;;9.77;1.40;;;10.60;99.90;;;;;;4972939;28;20026;-76
2023/12/29 01:39:58;;;;;;;10.85;2.00;;;10.70;99.90;;;;;;4955378;28;20049;-76
2023/12/29 01:42:24;;;;;;;8.38;1.20;;;10.60;99.90;;;;;;4973241;28;20039;-77
2023/12/29 01:44:54;;;;;;;9.98;1.30;;;10.60;99.90;;;;;;4978596;28;20030;-77
2023/12/29 01:47:21;;;;;;;10.63;1.10;;;10.60;99.90;;;;;;4960173;28;20051;-75
2023/12/29 01:49:49;;;;;;;9.25;1.05;;;10.60;99.90;;;;;;4972470;28;20041;-76
2023/12/29 01:52:20;;;;;;;12.02;1.48;;;10.60;99.90;;;;;;4988830;28;20026;-75
2023/12/29 01:54:49;;;;;;;11.63;1.58;;;10.60;99.90;;;;;;4972230;28;20030;-74
2023/12/29 01:57:15;;;;;;;11.00;1.38;;;10.60;99.90;;;;;;4962198;28;20481;-77
2023/12/29 01:59:45;;;;;;;14.40;1.67;;;10.50;99.90;;;;;;4977880;28;20451;-74
2023/12/29 02:02:11;;;;;;;11.60;1.50;;;10.50;99.90;;;;;;4972178;28;20464;-77
2023/12/29 02:04:40;;;;;;;7.85;0.90;;;10.50;99.90;;;;;;4976809;28;20030;-77
2023/12/29 02:07:06;;;;;;;10.70;1.73;;;10.50;99.90;;;;;;4973577;28;21004;-76
2023/12/29 02:09:34;;;;;;;12.38;1.10;;;10.50;99.90;;;;;;4955813;28;20034;-77
2023/12/29 02:12:00;;;;;;;12.35;1.85;;;10.50;99.90;;;;;;4974428;28;20513;-75
2023/12/29 02:14:27;;;;;;;8.70;1.25;;;10.50;99.90;;;;;;4972143;28;20445;-76
2023/12/29 02:17:27;;;;;;;10.18;1.27;;;10.50;99.90;;;;;;4971661;28;20046;-76
2023/12/29 02:19:54;;;;;;;10.05;1.58;;;10.50;99.90;;;;;;4974657;28;20971;-76
2023/12/29 02:22:22;;;;;;;11.43;1.52;;;10.50;99.90;;;;;;4975930;28;20453;-77
2023/12/29 02:24:51;;;;;;;9.13;1.30;;;10.50;99.90;;;;;;4976790;28;20401;-77
2023/12/29 02:27:33;;;;;;;7.63;1.40;;;10.50;99.90;;;;;;4977595;28;20476;-76
2023/12/29 02:30:06;;;;;;;7.03;1.27;;;10.50;99.90;;;;;;4975963;28;20042;-77
2023/12/29 02:32:34;;;;;;;7.50;1.10;;;10.50;99.90;;;;;;4959506;28;20031;-77
2023/12/29 02:35:02;;;;;;;9.45;1.25;;;10.50;99.90;;;;;;4964288;28;20408;-76
2023/12/29 02:37:29;;;;;;;7.63;1.10;;;10.40;99.90;;;;;;4958161;28;20042;-77
2023/12/29 02:39:58;;;;;;;11.32;1.48;;;10.40;99.90;;;;;;4973575;28;20038;-75
2023/12/29 02:42:25;;;;;;;11.45;1.70;;;10.40;99.90;;;;;;4965293;28;20574;-76
2023/12/29 02:44:51;;;;;;;10.85;2.08;;;10.40;99.90;;;;;;4974768;28;20412;-75
2023/12/29 02:47:19;;;;;;;9.32;1.08;;;10.30;99.90;;;;;;4972698;28;20038;-76
2023/12/29 02:49:45;;;;;;;9.02;1.10;;;10.30;99.90;;;;;;4973580;28;20034;-76
2023/12/29 02:52:11;;;;;;;10.20;1.30;;;10.30;99.90;;;;;;4975319;28;20055;-78
2023/12/29 02:54:37;;;;;;;7.63;2.03;;;10.30;99.90;;;;;;4990008;28;20038;-78
2023/12/29 02:57:04;;;;;;;11.00;1.33;;;10.30;99.90;;;;;;4957191;28;20046;-75
2023/12/29 02:59:30;;;;;;;11.10;1.30;;;10.30;99.90;;;;;;4974710;28;20485;-77
2023/12/29 03:01:56;;;;;;;8.30;1.05;;;10.40;99.90;;;;;;4974720;28;20409;-76
2023/12/29 03:04:23;;;;;;;10.23;1.33;;;10.30;99.90;;;;;;4958118;28;20038;-76
2023/12/29 03:06:49;;;;;;;11.65;1.77;;;10.30;99.90;;;;;;4977417;28;20038;-76
2023/12/29 03:09:15;;;;;;;12.10;1.67;;;10.30;99.90;;;;;;4959917;28;20038;-74
2023/12/29 03:11:42;;;;;;;12.10;1.35;;;10.30;99.90;;;;;;4957900;28;20041;-76
2023/12/29 03:14:08;;;;;;;14.88;2.13;;;10.30;99.90;;;;;;4958882;28;20045;-77
2023/12/29 03:16:35;;;;;;;9.52;1.40;;;10.30;99.90;;;;;;4975190;28;20062;-76
2023/12/29 03:19:01;;;;;;;9.10;1.70;;;10.30;99.90;;;;;;4980537;28;20042;-76
2023/12/29 03:21:27;;;;;;;12.38;1.40;;;10.30;99.90;;;;;;4978036;28;20054;-75
2023/12/29 03:23:53;;;;;;;9.75;1.40;;;10.20;99.90;;;;;;4957306;28;20057;-76
2023/12/29 03:26:20;;;;;;;8.13;1.75;;;10.10;99.90;;;;;;4958857;28;20405;-76
2023/12/29 03:28:46;;;;;;;9.85;1.40;;;10.10;99.90;;;;;;4976122;28;20063;-78
2023/12/29 03:31:12;;;;;;;10.38;1.98;;;10.10;99.90;;;;;;4977238;28;20045;-78
2023/12/29 03:33:40;;;;;;;12.25;1.38;;;10.00;99.90;;;;;;4982178;28;20401;-77
2023/12/29 03:36:07;;;;;;;8.85;1.17;;;10.00;99.90;;;;;;4959045;28;20760;-79
2023/12/29 03:38:34;;;;;;;14.02;1.65;;;10.10;99.90;;;;;;4975818;28;20030;-75
2023/12/29 03:41:01;;;;;;;10.60;1.33;;;10.10;99.90;;;;;;4976110;28;20027;-76
2023/12/29 03:43:27;;;;;;;7.53;1.38;;;10.10;99.90;;;;;;4974500;28;20500;-77
2023/12/29 03:45:54;;;;;;;12.00;1.50;;;10.10;99.90;;;;;;4958371;28;20038;-79
2023/12/29 03:48:21;;;;;;;10.70;1.10;;;10.10;99.90;;;;;;4973739;28;20034;-77
2023/12/29 03:50:48;;;;;;;10.52;2.08;;;10.10;99.90;;;;;;4960310;28;20050;-75
2023/12/29 03:53:15;;;;;;;8.70;1.33;;;10.10;99.90;;;;;;4974159;28;20057;-75
2023/12/29 03:55:42;;;;;;;16.95;1.52;;;10.10;99.90;;;;;;4974511;28;20047;-75
2023/12/29 03:58:08;;;;;;;19.83;2.08;;;10.10;99.90;;;;;;4974273;28;20045;-75
2023/12/29 04:00:35;;;;;;;15.32;2.35;;;10.10;99.90;;;;;;4976540;28;20034;-75
2023/12/29 04:03:02;;;;;;;7.13;1.40;;;10.10;99.90;;;;;;4975388;28;20381;-77
2023/12/29 04:05:28;;;;;;;12.90;1.42;;;10.10;99.90;;;;;;4975452;28;20399;-76
2023/12/29 04:07:54;;;;;;;9.23;1.40;;;10.10;99.90;;;;;;4974171;28;20030;-75
2023/12/29 04:10:21;;;;;;;11.13;1.45;;;10.10;99.90;;;;;;4991420;28;20026;-74
2023/12/29 04:12:48;;;;;;;12.13;1.73;;;10.10;99.90;;;;;;4991276;28;20033;-76
2023/12/29 04:15:14;;;;;;;18.80;2.30;;;10.10;99.90;;;;;;4991289;28;20026;-76
2023/12/29 04:17:40;;;;;;;20.70;2.38;;;10.10;99.90;;;;;;4992500;28;20030;-77
2023/12/29 04:20:08;;;;;;;15.50;2.22;;;10.20;99.90;;;;;;4979208;28;20028;-75
2023/12/29 04:22:35;;;;;;;15.77;1.75;;;10.20;99.90;;;;;;4981995;28;20042;-76
2023/12/29 04:25:01;;;;;;;23.00;2.88;;;10.20;99.90;;;;;;4974072;28;20161;-76
2023/12/29 04:27:28;;;;;;;16.48;1.88;;;10.20;99.90;;;;;;4945025;28;20070;-76
2023/12/29 04:29:54;;;;;;;18.55;2.72;;;10.20;99.90;;;;;;4974452;28;20240;-74
2023/12/29 04:32:20;;;;;;;10.13;1.35;;;10.20;99.90;;;;;;4960593;28;20039;-76
2023/12/29 04:34:47;;;;;;;17.30;2.78;;;10.20;99.90;;;;;;4974707;28;20041;-76
2023/12/29 04:37:13;;;;;;;11.52;1.70;;;10.20;99.90;;;;;;4980073;28;20138;-76
2023/12/29 04:39:40;;;;;;;14.85;2.25;;;10.20;99.90;;;;;;4957345;28;20042;-76
2023/12/29 04:42:07;;;;;;;11.85;1.60;;;10.20;99.90;;;;;;4981160;28;20034;-75
2023/12/29 04:44:33;;;;;;;13.50;1.73;;;10.20;99.90;;;;;;4942524;28;20046;-75
2023/12/29 04:46:59;;;;;;;11.77;1.77;;;10.20;99.90;;;;;;4978715;28;20439;-76
2023/12/29 04:49:26;;;;;;;12.80;1.85;;;10.20;99.90;;;;;;4974593;28;20042;-76
2023/12/29 04:51:52;;;;;;;24.20;2.45;;;10.20;99.90;;;;;;4975818;28;20034;-76
2023/12/29 04:54:18;;;;;;;16.50;1.73;;;10.20;99.90;;;;;;4975630;28;20042;-76
2023/12/29 04:56:45;;;;;;;11.82;1.92;;;10.20;99.90;;;;;;4975234;28;22950;-77
2023/12/29 04:59:11;;;;;;;16.48;2.65;;;10.20;99.90;;;;;;4958360;28;20525;-77
2023/12/29 05:01:37;;;;;;;17.67;2.67;;;10.20;99.90;;;;;;4975178;28;20772;-75
2023/12/29 05:04:03;;;;;;;11.77;2.08;;;10.20;99.90;;;;;;4945112;28;20046;-76
2023/12/29 05:06:30;;;;;;;16.42;2.08;;;10.30;99.90;;;;;;4974038;28;20061;-74
2023/12/29 05:08:56;;;;;;;12.80;1.70;;;10.30;99.90;;;;;;4976076;28;20038;-76
2023/12/29 05:11:23;;;;;;;15.77;2.90;;;10.30;99.90;;;;;;4972837;28;20034;-75
2023/12/29 05:13:50;;;;;;;17.35;2.33;;;10.30;99.90;;;;;;4971937;28;20061;-76
2023/12/29 05:16:16;;;;;;;15.45;1.70;;;10.30;99.90;;;;;;4972790;28;20034;-74
2023/12/29 05:18:43;;;;;;;15.45;2.28;;;10.30;99.90;;;;;;4975627;28;20446;-77
2023/12/29 05:21:17;;;;;;;13.18;2.08;;;10.30;99.90;;;;;;4974472;28;20049;-75
2023/12/29 05:23:47;;;;;;;13.65;2.63;;;10.30;99.90;;;;;;4964515;28;20030;-77
2023/12/29 05:26:14;;;;;;;15.48;3.40;;;10.30;99.90;;;;;;4973353;28;20409;-78
2023/12/29 05:28:41;;;;;;;22.48;3.17;;;10.30;99.90;;;;;;4959293;28;20061;-75
2023/12/29 05:31:08;;;;;;;16.05;2.53;;;10.30;99.90;;;;;;4976097;28;20485;-78
2023/12/29 05:33:35;;;;;;;17.67;1.77;;;10.30;99.90;;;;;;4958304;28;20035;-76
2023/12/29 05:36:09;;;;;;;16.85;2.67;;;10.30;99.90;;;;;;4973173;28;20061;-77
2023/12/29 05:38:37;;;;;;;21.83;2.65;;;10.30;99.90;;;;;;4977129;28;20038;-76
2023/12/29 05:41:04;;;;;;;24.48;1.95;;;10.30;99.90;;;;;;4964106;28;20037;-75
2023/12/29 05:43:32;;;;;;;16.13;2.20;;;10.20;99.90;;;;;;4981489;28;20037;-77
2023/12/29 05:45:59;;;;;;;14.73;1.67;;;10.20;99.90;;;;;;4973893;28;20501;-78
2023/12/29 05:48:25;;;;;;;16.90;1.70;;;10.30;99.90;;;;;;4956402;28;20034;-77
2023/12/29 05:50:52;;;;;;;11.43;2.35;;;10.20;99.90;;;;;;4981453;28;20033;-77
2023/12/29 05:53:18;;;;;;;16.80;2.13;;;10.20;99.90;;;;;;4979504;28;20034;-76
2023/12/29 05:55:45;;;;;;;15.88;2.08;;;10.20;99.90;;;;;;4977735;28;20448;-75
2023/12/29 05:58:12;;;;;;;21.05;2.50;;;10.20;99.90;;;;;;4966014;28;20034;-78
2023/12/29 06:00:39;;;;;;;21.00;2.78;;;10.20;99.90;;;;;;4978952;28;20046;-76
2023/12/29 06:03:06;;;;;;;15.85;2.17;;;10.20;99.90;;;;;;4979582;28;20030;-76
2023/12/29 06:05:32;;;;;;;13.80;2.45;;;10.20;99.90;;;;;;4979276;28;20030;-78
2023/12/29 06:07:59;;;;;;;16.92;2.35;;;10.20;99.90;;;;;;4981051;28;20049;-77
2023/12/29 06:10:25;;;;;;;13.93;2.13;;;10.20;99.90;;;;;;4963500;28;20084;-76
2023/12/29 06:12:51;;;;;;;20.63;3.08;;;10.10;99.90;;;;;;4981718;28;20042;-77
2023/12/29 06:15:18;;;;;;;12.70;1.63;;;10.10;99.90;;;;;;4979217;28;20057;-77
2023/12/29 06:17:44;;;;;;;16.52;2.03;;;10.10;99.90;;;;;;4979609;28;20658;-78
2023/12/29 06:20:11;;;;;;;16.00;2.42;;;10.10;99.90;;;;;;4980365;28;20033;-77
2023/12/29 06:22:41;;;;;;;15.05;1.75;;;10.10;99.90;;;;;;4964418;28;20035;-76
2023/12/29 06:25:11;;;;;;;15.73;1.90;;;10.20;99.90;;;;;;4980840;28;20034;-78
2023/12/29 06:27:39;;;;;;;16.38;2.38;;;10.10;99.90;;;;;;4965205;28;20038;-78
2023/12/29 06:30:12;;;;;;;10.80;1.55;;;10.10;99.90;;;;;;4982739;28;21101;-78
2023/12/29 06:32:39;;;;;;;15.88;2.25;;;10.10;99.90;;;;;;4970825;28;20041;-78
2023/12/29 06:35:06;;;;;;;16.60;2.50;;;10.10;99.90;;;;;;4979092;28;20484;-77
2023/12/29 06:37:33;;;;;;;17.60;1.63;;;10.00;99.90;;;;;;4979333;28;20038;-77
2023/12/29 06:39:59;;;;;;;13.93;1.95;;;10.00;99.90;;;;;;4963300;28;20049;-78
2023/12/29 06:42:27;;;;;;;14.02;1.40;;;10.00;99.90;;;;;;4969005;28;20045;-76
2023/12/29 06:44:53;;;;;;;10.27;1.40;;;10.10;99.90;;;;;;4983180;28;20042;-78
2023/12/29 06:47:19;;;;;;;14.52;2.08;;;10.10;99.90;;;;;;4980545;28;20049;-78
2023/12/29 06:49:46;;;;;;;11.68;1.30;;;10.10;99.90;;;;;;4968662;28;20034;-78
2023/12/29 06:52:12;;;;;;;14.68;2.28;;;10.10;99.90;;;;;;4979382;28;20038;-79
2023/12/29 06:54:38;;;;;;;13.65;1.70;;;10.20;99.90;;;;;;4979344;28;20503;-78
2023/12/29 06:57:05;;;;;;;12.25;1.60;;;10.20;99.90;;;;;;4983830;28;20048;-81
2023/12/29 06:59:31;;;;;;;12.23;2.67;;;10.20;99.90;;;;;;4979339;28;20387;-78
2023/12/29 07:01:58;;;;;;;14.70;1.95;;;10.20;99.90;;;;;;4978849;28;20042;-79
2023/12/29 07:04:24;;;;;;;14.57;2.22;;;10.20;99.90;;;;;;4975543;28;20037;-77
2023/12/29 07:06:50;;;;;;;11.38;1.35;;;10.20;99.90;;;;;;4958896;28;20042;-78
2023/12/29 07:09:17;;;;;;;9.30;1.40;;;10.20;99.90;;;;;;4964032;28;20047;-77
2023/12/29 07:11:48;;;;;;;8.50;1.85;;;10.10;99.90;;;;;;4974826;28;20270;-77
2023/12/29 07:14:15;;;;;;;9.20;1.60;;;10.10;99.90;;;;;;4974057;28;20034;-75
2023/12/29 07:16:41;;;;;;;14.15;1.90;;;10.00;99.90;;;;;;4960193;28;20043;-76
2023/12/29 07:19:08;;;;;;;13.93;1.38;;;9.90;99.90;;;;;;4976058;28;20041;-76
2023/12/29 07:21:34;;;;;;;10.55;1.83;;;9.90;99.90;;;;;;4976428;28;20314;-77
2023/12/29 07:24:01;;;;;;;12.30;1.30;;;9.80;99.90;;;;;;4976182;28;20041;-76
2023/12/29 07:26:27;;;;;;;7.57;1.10;;;9.70;99.90;;;;;;4959843;28;20049;-76
2023/12/29 07:28:54;;;;;;;14.10;0.93;;;9.60;99.90;;;;;;4981637;28;20042;-76
2023/12/29 07:31:21;;;;;;;14.00;1.95;;;9.50;99.90;;;;;;4978951;28;20422;-76
2023/12/29 07:33:47;;;;;;;9.18;1.13;;;9.50;99.90;;;;;;4992170;28;20037;-75
2023/12/29 07:36:14;;;;;;;13.77;2.22;;;9.40;99.90;;;;;;4961127;28;20610;-75
2023/12/29 07:38:40;;;;;;;11.13;1.25;;;9.40;99.90;;;;;;4975907;28;20026;-75
2023/12/29 07:41:06;;;;;;;7.05;1.05;;;9.40;99.90;;;;;;4976218;28;20038;-76
2023/12/29 07:43:34;;;;;;;7.78;2.03;;;9.40;99.90;;;;;;4976085;28;20034;-76
2023/12/29 07:46:01;;;;;;;8.75;1.73;;;9.40;99.90;;;;;;4976871;28;21275;-75
2023/12/29 07:48:27;;;;;;;8.00;1.40;;;9.40;99.90;;;;;;4975600;28;20038;-76
2023/12/29 07:50:56;;;;;;;7.15;1.70;;;9.40;99.90;;;;;;4976460;28;20027;-76
2023/12/29 07:53:22;;;;;;;13.95;1.92;;;9.40;99.90;;;;;;4965182;28;20505;-77
2023/12/29 07:55:50;;;;;;;12.68;2.22;;;9.40;99.90;;;;;;4975260;28;20057;-76
2023/12/29 07:58:16;;;;;;;7.60;1.15;;;9.40;99.90;;;;;;4978971;28;20045;-76
2023/12/29 08:00:42;;;;;;;11.85;2.03;;;9.30;99.90;;;;;;4976880;28;20031;-74
2023/12/29 08:03:08;;;;;;;22.02;3.40;;;9.40;99.90;;;;;;4958954;28;20050;-76
2023/12/29 08:05:35;;;;;;;8.30;1.27;;;9.40;99.90;;;;;;4975063;28;20030;-75
2023/12/29 08:08:01;;;;;;;6.10;1.10;;;9.40;99.90;;;;;;4974196;28;20629;-75
2023/12/29 08:10:27;;;;;;;7.30;1.33;;;9.40;99.90;;;;;;4974197;28;20038;-75
2023/12/29 08:12:54;;;;;;;10.10;1.83;;;9.30;99.90;;;;;;4990078;28;20029;-76
2023/12/29 08:15:20;;;;;;;8.13;1.83;;;9.40;99.90;;;;;;4972106;28;20749;-75
2023/12/29 08:17:47;;;;;;;10.40;1.83;;;9.30;99.90;;;;;;4973936;28;20042;-76
2023/12/29 08:20:13;;;;;;;10.52;2.75;;;9.30;99.90;;;;;;4957936;28;20049;-76
2023/12/29 08:22:39;;;;;;;14.10;1.98;;;9.30;99.90;;;;;;4980802;28;20050;-76
2023/12/29 08:25:06;;;;;;;10.43;2.33;;;9.30;99.90;;;;;;4977802;28;20041;-75
2023/12/29 08:27:32;;;;;;;13.63;2.20;;;9.30;99.90;;;;;;4991040;28;20042;-75
2023/12/29 08:29:58;;;;;;;13.18;2.92;;;9.30;99.90;;;;;;4976516;28;20038;-75
2023/12/29 08:32:25;;;;;;;4.97;1.75;;;9.40;99.90;;;;;;4975465;28;20069;-75
2023/12/29 08:34:51;;;;;;;10.52;1.80;;;9.40;99.90;;;;;;4975596;28;20049;-75
2023/12/29 08:37:19;;;;;;;10.32;2.05;;;9.40;99.90;;;;;;4977995;28;20931;-75
2023/12/29 08:39:47;;;;;;;8.45;1.85;;;9.40;99.90;;;;;;4975112;28;20030;-76
2023/12/29 08:42:14;;;;;;;8.88;1.65;;;9.40;99.90;;;;;;4963805;28;20046;-76
2023/12/29 08:44:41;;;;;;;10.57;2.10;;;9.40;99.90;;;;;;4974293;28;20049;-76
2023/12/29 08:47:08;;;;;;;9.60;1.52;;;9.40;99.90;;;;;;4958506;28;20480;-75
2023/12/29 08:49:37;;;;;;;10.15;1.90;;;9.40;99.90;;;;;;4975014;28;20030;-75
2023/12/29 08:52:03;;;;;;;10.90;2.05;;;9.40;99.90;;;;;;4974710;28;20044;-76
2023/12/29 08:54:30;;;;;;;5.00;1.38;;;9.50;99.90;;;;;;4974346;28;20046;-75
2023/12/29 08:56:56;;;;;;;8.38;1.50;;;9.50;99.90;;;;;;4979977;28;20026;-76
2023/12/29 08:59:23;;;;;;;11.43;2.20;;;9.50;99.90;;;;;;4961584;28;20497;-74
2023/12/29 09:01:49;;;;;;;10.55;2.55;;;9.50;99.90;;;;;;4972500;28;20038;-75
2023/12/29 09:04:15;;;;;;;9.40;2.35;;;9.50;99.90;;;;;;4955923;28;20038;-75
2023/12/29 09:06:42;;;;;;;5.50;1.77;;;9.50;99.90;;;;;;4972356;28;20049;-76
2023/12/29 09:09:12;;;;;;;12.13;2.25;;;9.60;99.90;;;;;;4972434;28;20033;-76
2023/12/29 09:11:39;;;;;;;10.48;2.10;;;9.60;99.90;;;;;;4974569;28;20943;-76
2023/12/29 09:14:06;;;;;;;7.72;1.63;;;9.60;99.90;;;;;;4988235;28;20038;-75
2023/12/29 09:16:32;;;;;;;6.47;1.48;;;9.60;99.90;;;;;;4957678;28;21030;-75
2023/12/29 09:18:59;;;;;;;7.45;1.58;;;9.60;99.90;;;;;;4956006;28;20401;-76
2023/12/29 09:21:25;;;;;;;6.32;1.42;;;9.70;99.90;;;;;;4975489;28;20061;-76
2023/12/29 09:23:52;;;;;;;5.00;1.38;;;9.70;99.90;;;;;;4958625;28;20041;-74
2023/12/29 09:26:18;;;;;;;7.90;1.45;;;9.70;99.90;;;;;;4990294;28;20042;-76
2023/12/29 09:28:44;;;;;;;7.70;1.30;;;9.70;99.90;;;;;;4974383;28;20045;-76
2023/12/29 09:31:11;;;;;;;9.88;1.38;;;9.70;99.90;;;;;;4973268;28;20045;-76
2023/12/29 09:33:38;;;;;;;6.60;1.98;;;9.70;99.90;;;;;;4958269;28;20026;-76
2023/12/29 09:36:05;;;;;;;8.10;1.73;;;9.80;99.90;;;;;;4975861;28;20481;-75
2023/12/29 09:38:31;;;;;;;5.82;1.60;;;9.80;99.90;;;;;;4976512;28;20049;-78
2023/12/29 09:41:11;;;;;;;4.95;1.20;;;9.80;99.90;;;;;;4974362;28;20049;-76
2023/12/29 09:43:40;;;;;;;6.40;1.55;;;9.80;99.90;;;;;;4975376;28;20038;-75
2023/12/29 09:46:08;;;;;;;6.45;1.60;;;9.90;99.90;;;;;;4973929;28;20037;-76
2023/12/29 09:48:37;;;;;;;6.72;1.20;;;9.80;99.90;;;;;;4973404;28;20114;-75
2023/12/29 09:51:05;;;;;;;9.52;1.85;;;9.90;99.90;;;;;;4972720;28;20034;-76
2023/12/29 09:53:32;;;;;;;5.43;1.17;;;9.90;99.90;;;;;;4976988;28;20034;-76
2023/12/29 09:56:01;;;;;;;6.30;1.00;;;9.90;99.90;;;;;;4979196;28;20038;-76
2023/12/29 09:58:27;;;;;;;3.40;1.17;;;9.90;99.90;;;;;;4965469;28;20050;-75
2023/12/29 10:00:54;;;;;;;5.95;1.33;;;9.90;99.90;;;;;;4959718;28;20057;-75
2023/12/29 10:03:20;;;;;;;5.22;0.90;;;10.00;99.90;;;;;;4975937;28;20420;-76
2023/12/29 10:05:53;;;;;;;7.70;0.85;;;10.00;99.90;;;;;;4975745;28;20026;-76
2023/12/29 10:08:22;;;;;;;4.68;0.82;;;10.00;99.90;;;;;;4971653;28;20049;-75
2023/12/29 10:10:49;;;;;;;4.88;1.05;;;10.00;99.90;;;;;;4967222;28;20556;-76
2023/12/29 10:13:18;;;;;;;4.43;1.20;;;10.10;99.90;;;;;;4954712;28;20035;-75
2023/12/29 10:16:03;;;;;;;4.13;0.95;;;10.10;99.90;;;;;;4955843;28;20129;-77
2023/12/29 10:19:07;;;;;;;4.63;1.13;;;10.10;99.90;;;;;;4973649;28;20038;-76
2023/12/29 10:22:02;;;;;;;7.63;1.00;;;10.20;99.90;;;;;;4971878;28;20035;-76
2023/12/29 10:24:29;;;;;;;6.03;1.35;;;10.30;99.90;;;;;;4973139;28;20034;-76
2023/12/29 10:26:56;;;;;;;6.05;1.60;;;10.30;99.90;;;;;;4969388;28;20489;-77
2023/12/29 10:29:22;;;;;;;4.22;1.63;;;10.30;99.90;;;;;;4969545;28;20045;-76
2023/12/29 10:31:50;;;;;;;2.92;1.35;;;10.30;99.90;;;;;;4970871;28;20030;-75
2023/12/29 10:34:29;;;;;;;3.45;1.10;;;10.30;99.90;;;;;;4973572;28;20030;-77
2023/12/29 10:36:56;;;;;;;4.68;1.20;;;10.30;99.90;;;;;;4970831;28;20321;-78
2023/12/29 10:39:23;;;;;;;3.95;1.10;;;10.30;99.90;;;;;;4956140;28;20034;-75
2023/12/29 10:42:02;;;;;;;5.18;1.75;;;10.40;99.90;;;;;;4977162;28;20056;-78
2023/12/29 10:44:29;;;;;;;3.70;1.08;;;10.40;99.90;;;;;;4976553;28;20045;-81
2023/12/29 10:46:55;;;;;;;4.28;1.10;;;10.40;99.90;;;;;;4957653;28;20046;-81
2023/12/29 10:49:22;;;;;;;4.03;1.25;;;10.50;99.90;;;;;;4973057;28;20061;-77
2023/12/29 10:51:49;;;;;;;1.73;1.00;;;10.50;99.90;;;;;;4958711;28;20034;-80
2023/12/29 10:54:24;;;;;;;3.70;1.40;;;10.60;99.90;;;;;;4976474;28;20035;-77
2023/12/29 10:57:03;;;;;;;2.45;1.00;;;10.70;99.90;;;;;;4975277;28;20031;-78
2023/12/29 10:59:30;;;;;;;3.65;0.80;;;10.70;99.90;;;;;;4991174;28;20034;-80
2023/12/29 11:01:56;;;;;;;3.47;1.15;;;10.80;99.90;;;;;;4976663;28;20040;-77
2023/12/29 11:04:23;;;;;;;4.97;1.10;;;10.80;99.90;;;;;;4963148;28;20038;-74
2023/12/29 11:06:51;;;;;;;3.67;0.90;;;10.90;99.90;;;;;;4960594;28;20069;-79
2023/12/29 11:09:34;;;;;;;3.20;0.90;;;10.90;99.90;;;;;;4977174;28;20045;-79
2023/12/29 11:12:02;;;;;;;3.70;0.88;;;10.90;99.90;;;;;;4979749;28;20045;-80
2023/12/29 11:14:28;;;;;;;4.03;0.75;;;10.90;99.90;;;;;;4994161;28;20031;-78
2023/12/29 11:16:56;;;;;;;2.22;0.85;;;10.90;99.90;;;;;;4978012;28;20030;-81
2023/12/29 11:19:23;;;;;;;5.82;1.10;;;10.90;99.90;;;;;;4978037;28;20517;-81
2023/12/29 11:21:55;;;;;;;8.10;2.95;;;10.80;99.90;;;;;;4962591;28;20504;-80
2023/12/29 11:24:22;;;;;;;5.68;1.77;;;10.80;99.90;;;;;;4979283;28;20042;-76
2023/12/29 11:26:49;;;;;;;4.97;1.77;;;10.80;99.90;;;;;;4962783;28;20050;-81
2023/12/29 11:29:19;;;;;;;5.30;1.75;;;10.80;99.90;;;;;;4974691;28;20041;-83
2023/12/29 11:31:48;;;;;;;6.10;1.30;;;10.90;99.90;;;;;;4993946;28;20033;-82
2023/12/29 11:34:30;;;;;;;5.60;1.30;;;11.00;99.90;;;;;;4993061;28;20046;-77
2023/12/29 11:37:18;;;;;;;4.93;1.03;;;11.00;99.90;;;;;;4974419;28;20042;-79
2023/12/29 11:39:57;;;;;;;5.50;1.20;;;11.10;99.90;;;;;;4979229;28;21056;-82
2023/12/29 11:42:35;;;;;;;5.15;1.05;;;11.10;99.90;;;;;;4965758;28;20076;-80
2023/12/29 11:45:26;;;;;;;4.93;1.35;;;11.10;99.90;;;;;;4975647;28;20061;-77
2023/12/29 11:47:53;;;;;;;7.88;1.20;;;11.20;99.90;;;;;;4976054;28;20413;-80
2023/12/29 11:50:31;;;;;;;6.25;0.90;;;11.20;99.90;;;;;;4975268;28;20030;-80
2023/12/29 11:52:59;;;;;;;6.85;1.45;;;11.10;99.90;;;;;;4975724;28;20047;-76
2023/12/29 11:55:39;;;;;;;8.98;1.15;;;11.10;99.90;;;;;;4972578;28;20518;-81
2023/12/29 11:58:25;;;;;;;4.50;0.95;;;11.10;99.90;;;;;;4973824;28;20041;-82
2023/12/29 12:00:51;;;;;;;5.05;0.82;;;11.10;99.90;;;;;;4958543;28;20404;-81
2023/12/29 12:03:31;;;;;;;7.20;1.10;;;11.10;99.90;;;;;;4963895;28;20042;-81
2023/12/29 12:05:58;;;;;;;9.73;1.00;;;11.20;99.90;;;;;;4958709;28;20053;-79
2023/12/29 12:08:32;;;;;;;6.20;0.90;;;11.10;99.90;;;;;;4963863;28;20066;-79
2023/12/29 12:11:31;;;;;;;9.43;0.95;;;11.20;99.90;;;;;;4973164;28;20046;-80
2023/12/29 12:13:57;;;;;;;5.32;0.60;;;11.20;99.90;;;;;;4973635;28;20540;-82
2023/12/29 12:16:42;;;;;;;8.13;0.85;;;11.20;99.90;;;;;;4975170;28;20042;-81
2023/12/29 12:19:09;;;;;;;8.15;0.77;;;11.20;99.90;;;;;;4988132;28;20397;-83
2023/12/29 12:21:36;;;;;;;5.47;0.90;;;11.20;99.90;;;;;;4972032;28;20709;-81
2023/12/29 12:24:04;;;;;;;5.50;1.02;;;11.30;99.90;;;;;;4987749;28;20043;-79
2023/12/29 12:26:32;;;;;;;6.72;1.45;;;11.30;99.90;;;;;;4955725;28;20038;-80
2023/12/29 12:28:59;;;;;;;10.43;2.35;;;11.30;99.90;;;;;;4955251;28;20394;-76
2023/12/29 12:31:26;;;;;;;11.63;1.63;;;11.30;99.90;;;;;;4985916;28;20037;-81
2023/12/29 12:33:56;;;;;;;13.13;1.23;;;11.30;99.90;;;;;;4971165;28;20039;-81
2023/12/29 12:36:24;;;;;;;10.02;1.27;;;11.30;99.90;;;;;;4956626;28;20401;-82
2023/12/29 12:38:55;;;;;;;10.35;1.35;;;11.30;99.90;;;;;;4976271;28;21081;-76
2023/12/29 12:41:22;;;;;;;9.02;1.17;;;11.30;99.90;;;;;;4975071;28;20030;-81
2023/12/29 12:44:12;;;;;;;8.63;0.73;;;11.30;99.90;;;;;;4972943;28;20024;-83
2023/12/29 12:46:52;;;;;;;9.27;1.00;;;11.30;99.90;;;;;;4955094;28;20053;-85
2023/12/29 12:49:19;;;;;;;10.73;3.33;;;11.30;99.90;;;;;;4974490;28;20045;-80